Time;durP1;ratioP1;P1;durP2;ratioP2;P2;SDS_P1;SDS_P2;PMS_P1;PMS_P2;Temp;Humidity;BMP_temperature;BMP_pressure;BME280_temperature;BME280_humidity;BME280_pressure;Samples;Min_cycle;Max_cycle;Signal;HPM_P1;HPM_P2
2023/05/06 00:01:19;;;;;;;6.72;4.93;;;10.60;95.50;;;;;;5083071;27;20679;-70
2023/05/06 00:04:08;;;;;;;7.38;4.72;;;10.70;95.50;;;;;;5082643;28;20231;-70
2023/05/06 00:06:57;;;;;;;7.18;4.75;;;10.70;95.50;;;;;;5083084;28;20216;-70
2023/05/06 00:09:46;;;;;;;9.65;4.75;;;10.80;95.40;;;;;;5078631;28;20334;-70
2023/05/06 00:12:34;;;;;;;7.30;5.07;;;10.70;95.30;;;;;;5082076;28;20231;-70
2023/05/06 00:15:23;;;;;;;11.25;4.53;;;10.60;95.00;;;;;;5077865;28;20556;-70
2023/05/06 00:18:14;;;;;;;7.15;4.38;;;10.50;94.90;;;;;;5074712;28;20254;-70
2023/05/06 00:21:02;;;;;;;8.25;4.60;;;10.30;94.60;;;;;;5076293;28;20245;-70
2023/05/06 00:23:51;;;;;;;7.85;4.68;;;;;;;;;;5070827;28;22753;-70
2023/05/06 00:26:40;;;;;;;7.75;4.57;;;10.40;93.90;;;;;;5083637;28;20235;-72
2023/05/06 00:29:29;;;;;;;8.68;4.30;;;10.40;93.50;;;;;;5084827;28;20219;-73
2023/05/06 00:32:18;;;;;;;7.40;4.18;;;10.40;93.50;;;;;;5073239;28;20254;-72
2023/05/06 00:35:09;;;;;;;8.50;4.53;;;10.20;92.70;;;;;;5082850;28;20223;-72
2023/05/06 00:38:06;;;;;;;8.55;4.20;;;10.30;92.90;;;;;;5102986;27;20251;-72
2023/05/06 00:40:56;;;;;;;7.15;4.13;;;10.10;92.70;;;;;;5080532;28;20250;-71
2023/05/06 00:43:46;;;;;;;8.02;4.38;;;;;;;;;;5079581;28;20227;-70
2023/05/06 00:46:35;;;;;;;8.77;4.47;;;10.10;91.90;;;;;;5073412;28;20220;-68
2023/05/06 00:49:25;;;;;;;5.88;4.05;;;9.90;92.00;;;;;;5073602;28;20305;-69
2023/05/06 00:52:15;;;;;;;9.55;4.07;;;9.70;92.40;;;;;;5064279;28;20703;-71
2023/05/06 00:55:05;;;;;;;7.50;4.00;;;9.80;91.90;;;;;;5081995;28;20227;-74
2023/05/06 00:57:55;;;;;;;8.23;4.15;;;10.00;92.10;;;;;;5078228;28;20350;-72
2023/05/06 01:00:44;;;;;;;7.95;4.30;;;10.00;91.70;;;;;;5083554;28;20230;-70
2023/05/06 01:03:33;;;;;;;10.05;4.28;;;9.90;91.30;;;;;;5078271;28;20575;-72
2023/05/06 01:06:29;;;;;;;7.78;3.80;;;9.90;91.50;;;;;;5076992;28;20819;-68
2023/05/06 01:09:25;;;;;;;6.95;4.30;;;10.00;91.40;;;;;;5083832;28;20729;-70
2023/05/06 01:12:24;;;;;;;6.47;3.58;;;10.00;91.20;;;;;;5085606;28;20219;-70
2023/05/06 01:15:18;;;;;;;6.30;3.75;;;10.10;90.80;;;;;;5073062;28;20226;-70
2023/05/06 01:18:10;;;;;;;6.53;4.20;;;10.00;90.60;;;;;;5082515;28;20235;-72
2023/05/06 01:21:00;;;;;;;6.85;3.95;;;9.80;90.70;;;;;;5081391;28;20447;-72
2023/05/06 01:23:58;;;;;;;5.45;3.88;;;9.90;90.80;;;;;;5075778;28;20371;-71
2023/05/06 01:26:47;;;;;;;7.80;3.65;;;9.60;90.80;;;;;;5075336;28;20284;-71
2023/05/06 01:29:38;;;;;;;7.47;3.70;;;9.40;91.10;;;;;;5074568;28;20222;-72
2023/05/06 01:32:40;;;;;;;6.78;3.90;;;9.60;91.00;;;;;;5068326;28;20234;-73
2023/05/06 01:35:35;;;;;;;8.80;3.58;;;9.50;90.80;;;;;;5072122;28;20967;-72
2023/05/06 01:38:34;;;;;;;7.10;3.50;;;9.50;90.90;;;;;;5078844;28;20694;-72
2023/05/06 01:41:26;;;;;;;7.55;4.00;;;9.40;91.00;;;;;;5079388;28;20300;-71
2023/05/06 01:44:16;;;;;;;9.77;3.95;;;9.40;90.80;;;;;;5082507;28;20701;-71
2023/05/06 01:47:07;;;;;;;6.88;4.07;;;9.50;90.80;;;;;;5082915;28;20540;-72
2023/05/06 01:49:57;;;;;;;6.13;3.50;;;9.20;91.00;;;;;;5068959;28;20372;-70
2023/05/06 01:52:46;;;;;;;7.38;3.95;;;;;;;;;;5076236;28;20226;-71
2023/05/06 01:55:34;;;;;;;4.68;3.25;;;9.20;90.80;;;;;;5073738;28;20235;-70
2023/05/06 01:58:24;;;;;;;6.57;3.63;;;8.90;91.20;;;;;;5083456;28;20310;-70
2023/05/06 02:01:13;;;;;;;5.43;3.40;;;9.10;91.00;;;;;;5081324;28;20246;-70
2023/05/06 02:04:02;;;;;;;6.13;4.05;;;9.10;91.50;;;;;;5071046;28;20232;-70
2023/05/06 02:06:51;;;;;;;6.95;3.88;;;9.20;90.90;;;;;;5075194;28;20239;-72
2023/05/06 02:09:40;;;;;;;6.07;4.00;;;9.30;90.60;;;;;;5076075;28;20226;-71
2023/05/06 02:12:29;;;;;;;5.47;3.60;;;9.10;90.70;;;;;;5081896;28;20238;-72
2023/05/06 02:15:20;;;;;;;7.40;3.50;;;9.00;90.70;;;;;;5074678;28;20227;-71
2023/05/06 02:18:10;;;;;;;6.03;3.38;;;9.00;90.80;;;;;;5073032;28;20329;-71
2023/05/06 02:20:58;;;;;;;6.07;3.42;;;9.10;90.80;;;;;;5082867;28;20389;-70
2023/05/06 02:23:47;;;;;;;6.70;4.00;;;9.10;90.60;;;;;;5076067;28;20231;-71
2023/05/06 02:26:36;;;;;;;4.97;3.55;;;8.80;91.00;;;;;;5081938;28;20227;-70
2023/05/06 02:29:25;;;;;;;6.82;3.58;;;8.70;91.20;;;;;;5080591;28;20384;-71
2023/05/06 02:32:15;;;;;;;6.80;3.42;;;8.80;90.90;;;;;;5077481;28;20722;-71
2023/05/06 02:35:05;;;;;;;6.28;3.60;;;8.70;91.00;;;;;;5071254;28;20434;-71
2023/05/06 02:37:54;;;;;;;7.65;3.45;;;8.60;91.00;;;;;;5082833;28;20737;-71
2023/05/06 02:40:42;;;;;;;7.40;3.13;;;8.80;91.20;;;;;;5079838;28;20997;-71
2023/05/06 02:43:31;;;;;;;5.97;3.55;;;8.50;91.60;;;;;;5099171;28;20232;-71
2023/05/06 02:46:20;;;;;;;6.63;3.58;;;8.70;91.40;;;;;;5073373;28;20624;-71
2023/05/06 02:49:11;;;;;;;8.00;3.10;;;8.70;91.00;;;;;;5086705;28;20281;-72
2023/05/06 02:51:59;;;;;;;5.90;4.00;;;8.70;91.10;;;;;;5083065;28;20231;-71
2023/05/06 02:54:48;;;;;;;8.70;3.20;;;8.90;91.00;;;;;;5081188;28;20239;-71
2023/05/06 02:57:37;;;;;;;5.20;3.47;;;8.70;90.90;;;;;;5078383;28;20223;-71
2023/05/06 03:00:26;;;;;;;6.50;3.40;;;8.70;90.90;;;;;;5072301;28;20301;-71
2023/05/06 03:03:14;;;;;;;5.07;3.20;;;8.80;90.80;;;;;;5073335;28;20223;-71
2023/05/06 03:06:05;;;;;;;5.38;3.25;;;8.70;90.80;;;;;;5067633;28;20238;-72
2023/05/06 03:08:54;;;;;;;5.38;3.60;;;8.70;91.00;;;;;;5086096;28;20232;-71
2023/05/06 03:11:42;;;;;;;4.88;3.35;;;8.80;90.90;;;;;;5083930;28;20275;-71
2023/05/06 03:14:32;;;;;;;9.38;3.55;;;8.90;91.00;;;;;;5079342;28;20333;-71
2023/05/06 03:17:20;;;;;;;6.53;2.88;;;8.90;90.90;;;;;;5085820;28;20219;-71
2023/05/06 03:20:12;;;;;;;4.47;3.45;;;8.80;91.00;;;;;;5076820;28;20219;-72
2023/05/06 03:23:07;;;;;;;6.80;3.40;;;8.80;91.30;;;;;;5077444;28;20226;-72
2023/05/06 03:25:56;;;;;;;4.25;2.85;;;8.90;91.20;;;;;;5067055;28;20226;-71
2023/05/06 03:28:46;;;;;;;4.55;3.10;;;9.00;91.30;;;;;;5094941;27;20254;-70
2023/05/06 03:31:37;;;;;;;4.93;3.10;;;9.20;90.90;;;;;;5074781;28;20228;-71
2023/05/06 03:34:27;;;;;;;6.75;3.42;;;9.20;90.90;;;;;;5099219;27;20724;-71
2023/05/06 03:37:16;;;;;;;6.40;3.30;;;9.00;90.90;;;;;;5084436;28;20349;-71
2023/05/06 03:40:11;;;;;;;7.03;3.47;;;9.00;90.70;;;;;;5085740;28;20304;-71
2023/05/06 03:43:02;;;;;;;6.97;3.40;;;9.20;91.00;;;;;;5078039;28;20226;-71
2023/05/06 03:45:50;;;;;;;6.25;3.35;;;9.20;90.80;;;;;;5085790;28;20235;-71
2023/05/06 03:48:39;;;;;;;5.13;3.10;;;9.30;91.00;;;;;;5080300;28;20698;-70
2023/05/06 03:51:32;;;;;;;5.00;3.17;;;8.90;91.10;;;;;;5074531;28;20311;-71
2023/05/06 03:54:21;;;;;;;6.45;3.30;;;9.00;91.10;;;;;;5083084;28;20219;-71
2023/05/06 03:57:11;;;;;;;7.20;2.88;;;9.00;91.50;;;;;;5085339;28;20261;-70
2023/05/06 04:00:00;;;;;;;4.88;3.10;;;9.10;91.40;;;;;;5086005;28;20263;-72
2023/05/06 04:02:52;;;;;;;6.60;3.25;;;9.00;91.50;;;;;;5085650;28;20234;-70
2023/05/06 04:05:50;;;;;;;3.85;2.60;;;9.20;91.50;;;;;;5086298;28;20606;-70
2023/05/06 04:08:43;;;;;;;5.72;3.40;;;9.40;91.40;;;;;;5067964;28;20765;-72
2023/05/06 04:11:32;;;;;;;6.93;3.40;;;9.40;91.40;;;;;;5076398;28;20235;-71
2023/05/06 04:14:23;;;;;;;5.53;3.10;;;9.40;91.40;;;;;;5084620;28;20255;-70
2023/05/06 04:17:13;;;;;;;7.57;3.55;;;9.40;91.30;;;;;;5079525;28;20361;-70
2023/05/06 04:20:10;;;;;;;6.28;2.90;;;9.30;91.40;;;;;;5085361;28;20227;-71
2023/05/06 04:23:00;;;;;;;5.97;3.42;;;9.40;91.40;;;;;;5077021;28;20788;-71
2023/05/06 04:25:50;;;;;;;5.23;2.70;;;9.30;91.40;;;;;;5084832;28;20709;-72
2023/05/06 04:28:41;;;;;;;6.28;3.25;;;9.30;91.50;;;;;;5080597;28;20232;-71
2023/05/06 04:31:33;;;;;;;6.85;3.30;;;9.50;91.70;;;;;;5081258;28;20247;-71
2023/05/06 04:34:26;;;;;;;9.23;3.17;;;9.20;91.50;;;;;;5085136;28;20246;-72
2023/05/06 04:37:18;;;;;;;5.88;3.03;;;9.20;92.00;;;;;;5074019;28;20228;-72
2023/05/06 04:40:13;;;;;;;4.85;3.55;;;9.40;91.90;;;;;;5074170;28;20746;-71
2023/05/06 04:43:05;;;;;;;4.53;3.45;;;9.50;91.70;;;;;;5080606;28;20231;-72
2023/05/06 04:45:54;;;;;;;4.22;2.95;;;9.50;92.00;;;;;;5076195;28;20541;-71
2023/05/06 04:48:49;;;;;;;4.07;3.00;;;9.50;91.80;;;;;;5112670;27;20220;-71
2023/05/06 04:51:39;;;;;;;7.07;3.42;;;9.60;91.80;;;;;;5072697;28;20532;-72
2023/05/06 04:54:27;;;;;;;4.65;2.95;;;9.30;92.10;;;;;;5085674;28;20219;-71
2023/05/06 04:57:16;;;;;;;8.38;3.50;;;9.30;92.30;;;;;;5068472;28;20239;-72
2023/05/06 05:00:08;;;;;;;5.00;2.83;;;9.30;92.30;;;;;;5079775;28;20448;-72
2023/05/06 05:02:58;;;;;;;6.00;3.40;;;9.40;92.30;;;;;;5077195;28;20231;-71
2023/05/06 05:05:48;;;;;;;6.50;3.42;;;9.30;92.70;;;;;;5087343;28;20228;-73
2023/05/06 05:08:40;;;;;;;6.93;3.45;;;9.40;92.70;;;;;;5085278;28;20230;-72
2023/05/06 05:11:29;;;;;;;5.95;3.22;;;9.40;92.70;;;;;;5085730;28;20234;-71
2023/05/06 05:14:20;;;;;;;6.18;3.25;;;9.60;92.60;;;;;;5081425;28;20238;-71
2023/05/06 05:17:09;;;;;;;6.70;3.33;;;9.50;92.40;;;;;;5068355;28;20231;-72
2023/05/06 05:19:59;;;;;;;10.60;3.38;;;9.70;92.60;;;;;;5080438;28;20219;-72
2023/05/06 05:22:52;;;;;;;7.18;3.38;;;9.70;92.50;;;;;;5078119;28;20227;-71
2023/05/06 05:25:41;;;;;;;7.28;3.40;;;9.90;92.50;;;;;;5083947;28;20629;-71
2023/05/06 05:28:29;;;;;;;7.25;3.60;;;9.90;92.30;;;;;;5084267;28;20238;-72
2023/05/06 05:31:21;;;;;;;6.05;3.40;;;9.50;92.60;;;;;;5077611;28;20223;-71
2023/05/06 05:34:10;;;;;;;9.68;3.40;;;9.80;93.00;;;;;;5084472;28;20220;-71
2023/05/06 05:36:59;;;;;;;10.48;3.92;;;9.80;92.90;;;;;;5100642;27;20310;-71
2023/05/06 05:39:50;;;;;;;9.15;3.72;;;9.80;93.00;;;;;;5070779;28;20236;-70
2023/05/06 05:42:39;;;;;;;7.22;3.10;;;9.80;93.20;;;;;;5077105;28;20231;-73
2023/05/06 05:45:36;;;;;;;5.15;3.28;;;9.90;93.10;;;;;;5080158;28;20219;-70
2023/05/06 05:48:26;;;;;;;9.63;3.58;;;9.90;93.30;;;;;;5074730;28;20236;-71
2023/05/06 05:51:15;;;;;;;6.43;3.20;;;10.20;93.20;;;;;;5075990;28;20238;-71
2023/05/06 05:54:04;;;;;;;10.35;3.60;;;10.30;93.00;;;;;;5074373;28;20250;-72
2023/05/06 05:56:56;;;;;;;6.07;3.85;;;10.50;93.00;;;;;;5071321;28;20238;-71
2023/05/06 05:59:46;;;;;;;10.18;3.38;;;10.50;92.90;;;;;;5082663;28;20230;-72
2023/05/06 06:02:34;;;;;;;8.05;3.58;;;10.80;92.80;;;;;;5081013;28;20226;-72
2023/05/06 06:05:23;;;;;;;8.18;3.33;;;11.00;92.50;;;;;;5072183;28;20567;-71
2023/05/06 06:08:13;;;;;;;12.60;4.15;;;10.80;92.50;;;;;;5076015;28;20223;-71
2023/05/06 06:11:03;;;;;;;4.15;2.97;;;10.90;92.50;;;;;;5079026;28;20231;-72
2023/05/06 06:13:58;;;;;;;8.63;3.53;;;10.90;92.30;;;;;;5072223;28;20234;-71
2023/05/06 06:16:47;;;;;;;4.65;2.95;;;11.20;92.50;;;;;;5071978;28;20280;-71
2023/05/06 06:19:38;;;;;;;5.30;2.70;;;11.20;91.60;;;;;;5079124;28;20215;-72
2023/05/06 06:22:27;;;;;;;5.10;3.15;;;11.20;91.70;;;;;;5086500;28;20227;-71
2023/05/06 06:25:17;;;;;;;5.15;3.15;;;11.40;91.10;;;;;;5077080;28;20219;-72
2023/05/06 06:28:06;;;;;;;3.90;2.78;;;11.10;90.90;;;;;;5085037;28;20227;-72
2023/05/06 06:30:56;;;;;;;9.57;2.95;;;11.20;91.20;;;;;;5066062;28;20244;-72
2023/05/06 06:33:45;;;;;;;7.05;3.00;;;11.40;90.90;;;;;;5065711;28;20215;-71
2023/05/06 06:36:34;;;;;;;10.18;3.05;;;11.70;90.40;;;;;;5082353;28;20798;-74
2023/05/06 06:39:23;;;;;;;4.32;2.42;;;11.60;90.10;;;;;;5081983;28;20251;-72
2023/05/06 06:42:11;;;;;;;4.30;2.78;;;11.80;90.30;;;;;;5083231;28;20710;-72
2023/05/06 06:45:10;;;;;;;5.68;3.20;;;11.70;89.90;;;;;;5097324;28;20242;-73
2023/05/06 06:48:01;;;;;;;4.53;2.80;;;11.90;90.00;;;;;;5077678;28;20228;-73
2023/05/06 06:50:49;;;;;;;4.88;2.88;;;12.00;88.70;;;;;;5085330;28;20298;-72
2023/05/06 06:53:38;;;;;;;4.85;2.85;;;12.00;89.80;;;;;;5078012;28;20230;-71
2023/05/06 06:56:27;;;;;;;6.28;3.22;;;12.00;89.50;;;;;;5088356;28;20269;-71
2023/05/06 06:59:16;;;;;;;3.75;2.45;;;11.90;89.00;;;;;;5079424;28;20212;-71
2023/05/06 07:02:04;;;;;;;8.18;3.20;;;12.00;89.20;;;;;;5084272;28;20230;-71
2023/05/06 07:04:55;;;;;;;8.13;3.17;;;12.10;88.40;;;;;;5085400;28;20215;-71
2023/05/06 07:07:44;;;;;;;5.50;2.88;;;12.10;88.10;;;;;;5087675;28;20302;-70
2023/05/06 07:10:33;;;;;;;6.45;3.25;;;12.10;88.10;;;;;;5075209;28;20770;-72
2023/05/06 07:13:22;;;;;;;4.45;2.53;;;12.10;88.10;;;;;;5081734;28;20616;-71
2023/05/06 07:16:11;;;;;;;6.07;3.17;;;12.20;87.50;;;;;;5073348;28;20235;-70
2023/05/06 07:19:01;;;;;;;4.32;2.67;;;12.10;86.50;;;;;;5087218;28;20227;-71
2023/05/06 07:21:51;;;;;;;4.95;2.30;;;12.10;86.90;;;;;;5087924;28;20238;-71
2023/05/06 07:24:40;;;;;;;3.38;2.28;;;12.30;87.50;;;;;;5085589;28;20216;-72
2023/05/06 07:27:29;;;;;;;5.15;2.55;;;12.40;86.20;;;;;;5077792;28;20224;-71
2023/05/06 07:30:19;;;;;;;6.38;2.40;;;12.30;86.70;;;;;;5087341;28;20448;-72
2023/05/06 07:33:11;;;;;;;3.70;2.08;;;12.30;86.40;;;;;;5078468;28;20235;-72
2023/05/06 07:35:59;;;;;;;5.68;2.70;;;12.10;85.60;;;;;;5086806;28;20495;-73
2023/05/06 07:38:50;;;;;;;4.13;2.50;;;12.20;86.40;;;;;;5084060;28;20737;-71
2023/05/06 07:41:38;;;;;;;3.83;2.45;;;12.30;85.40;;;;;;5085582;28;20247;-73
2023/05/06 07:44:27;;;;;;;4.45;2.20;;;12.50;85.90;;;;;;5088939;28;20223;-71
2023/05/06 07:47:25;;;;;;;3.70;2.42;;;12.50;85.00;;;;;;5086538;28;20774;-73
2023/05/06 07:50:15;;;;;;;2.75;1.88;;;12.30;84.60;;;;;;5088203;28;20314;-73
2023/05/06 07:53:03;;;;;;;7.50;2.67;;;12.30;84.30;;;;;;5083862;28;20395;-73
2023/05/06 07:55:57;;;;;;;6.72;2.30;;;12.40;82.80;;;;;;5085146;28;20225;-71
2023/05/06 07:58:47;;;;;;;3.15;2.13;;;12.10;83.40;;;;;;5085471;28;20679;-72
2023/05/06 08:01:36;;;;;;;4.40;2.25;;;12.40;83.60;;;;;;5079412;28;20218;-72
2023/05/06 08:04:25;;;;;;;4.65;1.95;;;12.70;82.90;;;;;;5075946;28;20326;-71
2023/05/06 08:07:14;;;;;;;5.05;2.42;;;12.70;82.90;;;;;;5075734;28;20307;-72
2023/05/06 08:10:03;;;;;;;4.20;2.10;;;12.70;82.50;;;;;;5084442;28;20947;-71
2023/05/06 08:12:53;;;;;;;3.92;2.20;;;12.70;81.20;;;;;;5092782;27;20811;-72
2023/05/06 08:15:43;;;;;;;6.45;2.05;;;12.60;80.90;;;;;;5080523;28;20236;-73
2023/05/06 08:18:32;;;;;;;6.53;2.00;;;12.50;81.90;;;;;;5083393;28;20220;-72
2023/05/06 08:21:20;;;;;;;11.98;2.25;;;12.60;80.70;;;;;;5081046;28;20303;-71
2023/05/06 08:24:12;;;;;;;4.35;1.90;;;12.50;81.00;;;;;;5085771;28;20231;-73
2023/05/06 08:27:01;;;;;;;3.40;1.77;;;12.60;81.20;;;;;;5087027;28;20223;-70
2023/05/06 08:29:51;;;;;;;4.47;1.83;;;12.70;80.60;;;;;;5089094;28;20666;-69
2023/05/06 08:32:40;;;;;;;5.10;1.85;;;12.70;80.10;;;;;;5082400;28;20242;-73
2023/05/06 08:35:29;;;;;;;2.67;1.70;;;12.70;80.20;;;;;;5086473;28;20226;-70
2023/05/06 08:38:18;;;;;;;2.80;1.70;;;12.80;80.20;;;;;;5082126;28;20233;-72
2023/05/06 08:41:09;;;;;;;4.28;1.77;;;12.80;80.60;;;;;;5064289;28;20219;-72
2023/05/06 08:43:59;;;;;;;3.50;2.10;;;12.80;80.20;;;;;;5086480;28;20239;-74
2023/05/06 08:46:50;;;;;;;4.55;2.22;;;13.10;83.10;;;;;;5085511;28;20297;-72
2023/05/06 08:49:38;;;;;;;4.38;2.05;;;13.10;83.20;;;;;;5081364;28;20216;-72
2023/05/06 08:52:28;;;;;;;5.90;2.80;;;13.10;81.30;;;;;;5079545;28;20286;-72
2023/05/06 08:55:19;;;;;;;6.60;2.55;;;13.00;80.70;;;;;;5078956;28;20224;-69
2023/05/06 08:58:08;;;;;;;6.80;2.10;;;13.00;80.20;;;;;;5088191;28;20227;-72
2023/05/06 09:00:58;;;;;;;6.43;2.08;;;12.70;80.40;;;;;;5084017;28;20302;-73
2023/05/06 09:03:50;;;;;;;5.82;1.90;;;12.80;80.00;;;;;;5071851;28;20227;-72
2023/05/06 09:06:38;;;;;;;5.65;1.80;;;12.90;79.00;;;;;;5075342;28;20307;-72
2023/05/06 09:09:27;;;;;;;5.85;1.92;;;13.00;79.50;;;;;;5087114;28;20272;-72
2023/05/06 09:12:16;;;;;;;4.65;2.00;;;13.00;78.00;;;;;;5084291;28;20227;-71
2023/05/06 09:15:06;;;;;;;2.60;1.63;;;13.00;77.90;;;;;;5085935;28;20418;-72
2023/05/06 09:17:55;;;;;;;5.15;1.88;;;13.10;78.80;;;;;;5069143;28;20236;-71
2023/05/06 09:20:47;;;;;;;4.03;2.00;;;13.10;78.20;;;;;;5107422;27;20220;-71
2023/05/06 09:23:37;;;;;;;3.22;1.88;;;13.20;78.30;;;;;;5087184;28;20215;-73
2023/05/06 09:26:27;;;;;;;4.60;1.95;;;13.20;78.00;;;;;;5088775;28;20381;-69
2023/05/06 09:29:16;;;;;;;4.32;1.80;;;13.20;77.30;;;;;;5086760;28;20226;-72
2023/05/06 09:32:07;;;;;;;10.07;2.35;;;13.20;77.90;;;;;;5074846;28;20239;-70
2023/05/06 09:34:57;;;;;;;5.25;1.98;;;13.20;77.70;;;;;;5085104;28;20334;-71
2023/05/06 09:37:47;;;;;;;5.25;2.17;;;12.90;77.50;;;;;;5079084;28;20218;-71
2023/05/06 09:40:36;;;;;;;3.35;1.70;;;12.70;77.60;;;;;;5074485;28;20278;-72
2023/05/06 09:43:26;;;;;;;4.18;1.80;;;13.00;81.10;;;;;;5076501;28;20247;-72
2023/05/06 09:46:16;;;;;;;5.25;2.03;;;12.90;78.80;;;;;;5074880;28;20741;-72
2023/05/06 09:49:05;;;;;;;5.30;1.88;;;12.90;80.00;;;;;;5086165;28;20623;-72
2023/05/06 09:51:56;;;;;;;4.38;1.95;;;12.80;81.00;;;;;;5084020;28;20234;-73
2023/05/06 09:54:50;;;;;;;7.20;2.00;;;12.70;84.20;;;;;;5078141;28;20232;-72
2023/05/06 09:57:40;;;;;;;9.60;2.20;;;12.40;83.30;;;;;;5080944;28;20219;-72
2023/05/06 10:00:31;;;;;;;4.20;1.80;;;12.50;87.20;;;;;;5088952;28;20637;-70
2023/05/06 10:03:21;;;;;;;4.25;2.10;;;12.60;86.40;;;;;;5083721;28;20349;-71
2023/05/06 10:06:11;;;;;;;3.28;1.67;;;12.60;88.20;;;;;;5088611;28;20254;-71
2023/05/06 10:09:01;;;;;;;5.32;2.25;;;12.40;84.90;;;;;;5084687;28;20237;-73
2023/05/06 10:11:51;;;;;;;1.85;1.67;;;12.30;86.90;;;;;;5083595;28;20219;-72
2023/05/06 10:14:40;;;;;;;5.00;1.83;;;12.40;86.50;;;;;;5072626;28;20230;-72
2023/05/06 10:17:31;;;;;;;3.95;1.98;;;12.30;86.30;;;;;;5073763;28;20598;-73
2023/05/06 10:20:24;;;;;;;5.07;2.10;;;12.30;86.00;;;;;;5082219;28;20819;-71
2023/05/06 10:23:22;;;;;;;3.90;1.67;;;12.40;85.20;;;;;;5078455;28;20294;-72
2023/05/06 10:26:12;;;;;;;4.20;1.70;;;12.50;87.40;;;;;;5079022;28;20770;-71
2023/05/06 10:29:04;;;;;;;6.32;1.80;;;12.40;82.70;;;;;;5081474;28;20241;-72
2023/05/06 10:31:55;;;;;;;7.70;2.03;;;12.40;82.10;;;;;;5108572;28;20228;-72
2023/05/06 10:34:52;;;;;;;6.78;1.92;;;12.30;82.50;;;;;;5076263;28;20348;-72
2023/05/06 10:37:43;;;;;;;2.85;1.75;;;12.40;82.70;;;;;;5084236;28;20594;-73
2023/05/06 10:40:32;;;;;;;3.53;1.80;;;12.30;79.50;;;;;;5082250;28;20814;-72
2023/05/06 10:43:24;;;;;;;7.57;2.00;;;12.40;82.70;;;;;;5074399;28;20239;-72
2023/05/06 10:46:15;;;;;;;8.38;2.17;;;12.40;81.20;;;;;;5084581;28;20223;-72
2023/05/06 10:49:18;;;;;;;8.32;2.10;;;12.40;79.80;;;;;;5079795;28;20227;-73
2023/05/06 10:52:12;;;;;;;4.88;1.88;;;12.40;82.80;;;;;;5075936;28;20223;-74
2023/05/06 10:55:01;;;;;;;2.33;2.00;;;12.40;81.30;;;;;;5080136;28;20223;-73
2023/05/06 10:57:54;;;;;;;5.43;1.88;;;12.30;81.70;;;;;;5077644;28;20554;-72
2023/05/06 11:00:53;;;;;;;7.82;2.10;;;12.30;80.60;;;;;;5085855;28;20301;-73
2023/05/06 11:03:44;;;;;;;5.68;2.10;;;12.30;81.50;;;;;;5072379;28;20338;-71
2023/05/06 11:06:35;;;;;;;6.22;2.47;;;12.40;82.60;;;;;;5084219;28;20318;-71
2023/05/06 11:09:28;;;;;;;3.15;1.88;;;12.50;83.30;;;;;;5088120;28;20211;-69
2023/05/06 11:12:20;;;;;;;4.45;2.00;;;12.60;82.90;;;;;;5078936;28;20227;-68
2023/05/06 11:15:37;;;;;;;8.23;2.50;;;12.60;83.60;;;;;;5073284;28;20231;-70
2023/05/06 11:18:43;;;;;;;5.43;2.00;;;12.60;83.40;;;;;;5095361;28;20227;-70
2023/05/06 11:21:39;;;;;;;4.63;2.30;;;12.60;81.90;;;;;;5081564;28;20513;-70
2023/05/06 11:24:29;;;;;;;6.57;2.45;;;12.50;82.70;;;;;;5079725;28;20705;-71
2023/05/06 11:27:24;;;;;;;8.38;2.92;;;12.70;84.50;;;;;;5091000;28;20253;-71
2023/05/06 11:30:14;;;;;;;4.75;2.45;;;12.80;83.90;;;;;;5096823;28;20570;-71
2023/05/06 11:33:05;;;;;;;5.10;2.40;;;12.80;84.30;;;;;;5085324;28;20222;-71
2023/05/06 11:35:55;;;;;;;3.67;2.10;;;12.70;82.00;;;;;;5075014;27;20347;-71
2023/05/06 11:38:45;;;;;;;11.30;2.35;;;12.60;83.40;;;;;;5088305;28;20219;-71
2023/05/06 11:41:38;;;;;;;6.38;2.25;;;12.60;83.90;;;;;;5079006;28;20216;-71
2023/05/06 11:44:29;;;;;;;3.20;2.20;;;12.50;85.40;;;;;;5085620;28;20239;-69
2023/05/06 11:47:22;;;;;;;6.13;2.20;;;12.50;83.30;;;;;;5078059;28;20560;-72
2023/05/06 11:50:11;;;;;;;5.35;2.40;;;12.50;85.00;;;;;;5080988;28;20563;-72
2023/05/06 11:53:02;;;;;;;10.13;2.33;;;12.60;83.90;;;;;;5110679;27;20239;-73
2023/05/06 11:55:53;;;;;;;5.55;2.47;;;12.80;86.00;;;;;;5083443;28;20208;-71
2023/05/06 11:58:42;;;;;;;8.80;2.83;;;12.60;84.40;;;;;;5084045;28;20844;-72
2023/05/06 12:01:33;;;;;;;4.88;2.20;;;12.70;86.70;;;;;;5077986;28;20246;-72
2023/05/06 12:04:22;;;;;;;6.90;2.05;;;12.60;84.90;;;;;;5069827;28;20927;-71
2023/05/06 12:07:12;;;;;;;9.32;2.50;;;12.70;88.00;;;;;;5075973;28;20721;-71
2023/05/06 12:10:03;;;;;;;5.13;2.35;;;12.70;87.20;;;;;;5074391;28;20233;-71
2023/05/06 12:12:52;;;;;;;6.93;2.22;;;12.60;87.00;;;;;;5084613;28;20232;-71
2023/05/06 12:15:41;;;;;;;5.97;2.83;;;12.60;89.10;;;;;;5071551;28;20305;-72
2023/05/06 12:18:30;;;;;;;7.20;2.58;;;12.50;87.80;;;;;;5073613;28;20247;-71
2023/05/06 12:21:22;;;;;;;4.07;2.70;;;12.40;90.10;;;;;;5071967;28;20263;-69
2023/05/06 12:24:12;;;;;;;6.18;2.55;;;12.40;88.90;;;;;;5078669;27;20261;-71
2023/05/06 12:27:02;;;;;;;3.90;2.42;;;12.30;90.50;;;;;;5093259;28;20917;-71
2023/05/06 12:29:54;;;;;;;9.02;3.03;;;12.30;90.70;;;;;;5080119;27;20236;-75
2023/05/06 12:32:58;;;;;;;5.47;2.70;;;12.20;91.20;;;;;;5083906;28;20227;-71
2023/05/06 12:35:47;;;;;;;5.78;2.47;;;12.20;92.40;;;;;;5077328;28;20229;-71
2023/05/06 12:38:36;;;;;;;8.52;2.70;;;12.10;91.10;;;;;;5084311;28;20234;-71
2023/05/06 12:41:36;;;;;;;8.70;2.72;;;12.10;92.40;;;;;;5083668;28;20227;-71
2023/05/06 12:44:35;;;;;;;3.80;2.50;;;11.80;92.40;;;;;;5066069;28;20220;-71
2023/05/06 12:47:25;;;;;;;9.52;3.20;;;11.90;94.00;;;;;;5083922;28;20310;-72
2023/05/06 12:50:14;;;;;;;4.78;2.55;;;12.00;94.70;;;;;;5080688;28;20235;-72
2023/05/06 12:53:04;;;;;;;5.97;3.10;;;12.00;95.10;;;;;;5075897;28;20232;-72
2023/05/06 12:55:53;;;;;;;7.32;3.35;;;11.90;94.90;;;;;;5078205;28;20238;-72
2023/05/06 12:58:42;;;;;;;7.22;3.25;;;11.90;95.80;;;;;;5076521;28;20238;-73
2023/05/06 13:01:32;;;;;;;7.82;3.25;;;11.90;96.00;;;;;;5084682;28;20732;-73
2023/05/06 13:04:22;;;;;;;6.85;3.63;;;11.80;97.10;;;;;;5075158;28;20231;-72
2023/05/06 13:07:10;;;;;;;4.88;3.65;;;11.80;98.00;;;;;;5076615;28;20568;-72
2023/05/06 13:09:59;;;;;;;11.43;3.75;;;11.80;98.80;;;;;;5090358;28;20280;-72
2023/05/06 13:12:48;;;;;;;7.57;3.90;;;11.70;99.50;;;;;;5085998;28;20238;-73
2023/05/06 13:15:37;;;;;;;7.90;3.38;;;11.50;99.90;;;;;;5067460;28;20225;-73
2023/05/06 13:18:27;;;;;;;7.55;3.25;;;11.30;99.00;;;;;;5078264;28;20220;-73
2023/05/06 13:21:16;;;;;;;7.32;3.83;;;11.30;99.90;;;;;;5082626;28;20211;-71
2023/05/06 13:24:06;;;;;;;7.43;3.20;;;11.30;99.90;;;;;;5083630;28;20231;-72
2023/05/06 13:26:56;;;;;;;8.10;3.63;;;11.20;99.90;;;;;;5078571;28;20235;-71
2023/05/06 13:29:45;;;;;;;7.93;3.83;;;11.10;99.90;;;;;;5084321;28;20227;-71
2023/05/06 13:32:34;;;;;;;6.25;3.83;;;11.00;99.90;;;;;;5085170;28;20219;-71
2023/05/06 13:35:24;;;;;;;11.57;4.82;;;10.90;99.90;;;;;;5084011;28;20263;-73
2023/05/06 13:38:13;;;;;;;11.93;4.53;;;10.80;99.90;;;;;;5083668;28;20726;-72
2023/05/06 13:41:02;;;;;;;9.73;5.18;;;10.80;99.90;;;;;;5084102;28;20337;-71
2023/05/06 13:43:50;;;;;;;18.77;5.88;;;10.70;99.90;;;;;;5082228;28;20219;-71
2023/05/06 13:46:39;;;;;;;7.50;5.43;;;10.60;99.90;;;;;;5085109;28;20236;-70
2023/05/06 13:49:29;;;;;;;9.45;5.15;;;10.40;99.90;;;;;;5084118;28;20749;-70
2023/05/06 13:52:19;;;;;;;7.15;5.13;;;10.20;99.90;;;;;;5077084;28;20641;-71
2023/05/06 13:55:09;;;;;;;9.43;5.82;;;10.00;99.90;;;;;;5081016;28;20405;-71
2023/05/06 13:57:58;;;;;;;12.43;6.28;;;10.00;99.90;;;;;;5077561;28;20332;-72
2023/05/06 14:00:48;;;;;;;12.40;6.38;;;9.90;99.90;;;;;;5083218;28;20218;-72
2023/05/06 14:03:36;;;;;;;11.88;6.22;;;9.90;99.90;;;;;;5076270;28;20342;-72
2023/05/06 14:06:26;;;;;;;11.40;6.60;;;9.90;99.90;;;;;;5075371;28;20996;-72
2023/05/06 14:09:16;;;;;;;10.35;5.63;;;9.90;99.90;;;;;;5085323;28;20296;-73
2023/05/06 14:12:05;;;;;;;15.32;6.55;;;9.70;99.90;;;;;;5075120;28;20273;-73
2023/05/06 14:14:54;;;;;;;10.35;5.82;;;9.80;99.90;;;;;;5071573;28;20292;-73
2023/05/06 14:17:43;;;;;;;13.80;7.05;;;9.80;99.90;;;;;;5075111;28;20224;-72
2023/05/06 14:20:33;;;;;;;13.00;6.82;;;9.80;99.90;;;;;;5073692;28;20226;-73
2023/05/06 14:23:21;;;;;;;11.98;6.00;;;9.60;99.90;;;;;;5085064;28;20316;-72
2023/05/06 14:26:12;;;;;;;12.45;6.75;;;9.40;99.90;;;;;;5078579;28;20224;-75
2023/05/06 14:29:02;;;;;;;11.50;7.07;;;9.50;99.90;;;;;;5076992;28;20228;-74
2023/05/06 14:31:52;;;;;;;10.90;6.32;;;9.50;99.90;;;;;;5082199;28;20238;-73
2023/05/06 14:34:41;;;;;;;12.85;6.05;;;9.40;99.90;;;;;;5091093;28;20224;-73
2023/05/06 14:37:30;;;;;;;13.75;6.88;;;9.40;99.90;;;;;;5083752;28;20219;-75
2023/05/06 14:40:19;;;;;;;8.88;5.88;;;9.40;99.90;;;;;;5083863;28;20224;-73
2023/05/06 14:43:09;;;;;;;10.05;5.50;;;9.40;99.90;;;;;;5083267;28;20269;-73
2023/05/06 14:45:58;;;;;;;10.45;6.38;;;9.40;99.90;;;;;;5078141;28;20238;-73
2023/05/06 14:48:47;;;;;;;9.32;5.82;;;9.30;99.90;;;;;;5078645;28;20744;-73
2023/05/06 14:51:36;;;;;;;8.88;6.53;;;9.30;99.90;;;;;;5079192;28;20219;-74